createdAt,value
2018-07-15T00:02:03.822Z,34.20
2018-07-15T00:04:34.432Z,34.53
2018-07-15T00:07:04.995Z,33.60
2018-07-15T00:09:35.768Z,35.93
2018-07-15T00:12:07.152Z,36.60
2018-07-15T00:14:37.796Z,34.83
2018-07-15T00:17:08.381Z,30.80
2018-07-15T00:19:39.008Z,29.77
2018-07-15T00:22:09.642Z,28.93
2018-07-15T00:24:39.678Z,26.53
2018-07-15T00:27:10.326Z,26.20
2018-07-15T00:29:41.012Z,24.97
2018-07-15T00:32:11.806Z,24.60
2018-07-15T00:34:42.492Z,21.27
2018-07-15T00:37:13.071Z,22.67
2018-07-15T00:39:43.967Z,22.90
2018-07-15T00:42:14.569Z,22.43
2018-07-15T00:44:45.113Z,22.77
2018-07-15T00:47:15.664Z,23.67
2018-07-15T00:49:46.576Z,23.83
2018-07-15T00:52:17.366Z,28.10
2018-07-15T00:54:48.403Z,27.10
2018-07-15T00:57:19.011Z,27.37
2018-07-15T00:59:49.688Z,26.47
2018-07-15T01:02:20.282Z,26.67
2018-07-15T01:04:50.836Z,26.30
2018-07-15T01:07:21.480Z,23.93
2018-07-15T01:09:52.320Z,24.27
2018-07-15T01:12:23.087Z,24.23
2018-07-15T01:14:54.278Z,24.60
2018-07-15T01:17:25.090Z,25.70
2018-07-15T01:19:55.031Z,25.53
2018-07-15T01:22:25.679Z,25.80
2018-07-15T01:24:56.363Z,25.93
2018-07-15T01:27:27.019Z,26.37
2018-07-15T01:29:57.679Z,25.73
2018-07-15T01:32:28.755Z,25.53
2018-07-15T01:34:59.612Z,25.20
2018-07-15T01:37:29.625Z,25.57
2018-07-15T01:40:00.331Z,23.93
2018-07-15T01:42:30.964Z,25.10
2018-07-15T01:45:01.104Z,25.00
2018-07-15T01:47:31.897Z,24.37
2018-07-15T01:50:02.635Z,23.80
2018-07-15T01:52:33.340Z,24.93
2018-07-15T01:55:04.124Z,24.67
2018-07-15T01:57:35.017Z,24.70
2018-07-15T02:00:06.371Z,25.67
2018-07-15T02:02:37.014Z,24.40
2018-07-15T02:05:08.054Z,24.40
2018-07-15T02:07:39.241Z,24.23
2018-07-15T02:10:10.042Z,25.50
2018-07-15T02:12:40.723Z,26.80
2018-07-15T02:15:11.333Z,25.60
2018-07-15T02:17:41.352Z,27.00
2018-07-15T02:20:12.688Z,27.47
2018-07-15T02:22:43.380Z,26.87
2018-07-15T02:25:14.030Z,25.83
2018-07-15T02:27:44.665Z,27.07
2018-07-15T02:30:15.732Z,26.73
2018-07-15T02:32:46.770Z,28.97
2018-07-15T02:35:16.798Z,28.47
2018-07-15T02:37:47.484Z,29.53
2018-07-15T02:40:19.448Z,31.50
2018-07-15T02:42:50.391Z,30.70
2018-07-15T02:45:21.224Z,31.47
2018-07-15T02:47:51.957Z,30.93
2018-07-15T02:50:22.588Z,30.57
2018-07-15T02:52:53.561Z,30.77
2018-07-15T02:55:24.101Z,29.27
2018-07-15T02:57:54.112Z,30.10
2018-07-15T03:00:24.716Z,29.63
2018-07-15T03:02:55.424Z,29.30
2018-07-15T03:05:26.375Z,30.07
2018-07-15T03:07:57.128Z,30.00
2018-07-15T03:10:27.680Z,28.80
2018-07-15T03:12:58.387Z,29.47
2018-07-15T03:15:29.064Z,29.97
2018-07-15T03:17:59.815Z,29.07
2018-07-15T03:20:30.428Z,28.10
2018-07-15T03:23:00.410Z,26.77
2018-07-15T03:25:30.907Z,28.27
2018-07-15T03:28:01.629Z,29.97
2018-07-15T03:30:32.327Z,30.40
2018-07-15T03:33:02.849Z,34.43
2018-07-15T03:35:33.695Z,33.57
2018-07-15T03:38:04.590Z,31.70
2018-07-15T03:40:35.517Z,32.63
2018-07-15T03:43:06.139Z,32.77
2018-07-15T03:45:37.012Z,33.87
2018-07-15T03:48:07.871Z,33.93
2018-07-15T03:50:38.864Z,33.67
2018-07-15T03:53:09.419Z,27.27
2018-07-15T03:55:40.052Z,23.90
2018-07-15T03:58:11.011Z,24.20
2018-07-15T04:00:41.326Z,22.57
2018-07-15T04:03:11.928Z,21.30
2018-07-15T04:05:42.637Z,19.70
2018-07-15T04:08:13.403Z,19.20
2018-07-15T04:10:44.177Z,19.33
2018-07-15T04:13:14.716Z,19.77
2018-07-15T04:15:45.331Z,20.30
2018-07-15T04:18:15.983Z,19.77
2018-07-15T04:20:45.973Z,23.63
2018-07-15T04:23:16.464Z,20.93
2018-07-15T04:25:47.134Z,20.30
2018-07-15T04:28:17.702Z,20.10
2018-07-15T04:30:48.450Z,20.70
2018-07-15T04:33:18.995Z,19.37
2018-07-15T04:35:49.519Z,19.00
2018-07-15T04:38:20.426Z,19.67
2018-07-15T04:40:51.148Z,19.53
2018-07-15T04:43:21.705Z,18.87
2018-07-15T04:45:52.344Z,20.17
2018-07-15T04:48:23.191Z,18.37
2018-07-15T04:50:53.815Z,18.67
2018-07-15T04:53:24.661Z,19.43
2018-07-15T04:55:55.353Z,20.00
2018-07-15T04:58:25.999Z,17.67
2018-07-15T05:00:56.023Z,18.27
2018-07-15T05:03:26.826Z,17.00
2018-07-15T05:05:57.669Z,16.30
2018-07-15T05:08:28.368Z,18.90
2018-07-15T05:10:59.172Z,18.40
2018-07-15T05:13:29.163Z,20.17
2018-07-15T05:15:59.534Z,17.93
2018-07-15T05:18:30.230Z,22.80
2018-07-15T05:21:00.835Z,23.30
2018-07-15T05:23:31.467Z,21.83
2018-07-15T05:26:02.044Z,21.17
2018-07-15T05:28:32.640Z,23.67
2018-07-15T05:31:03.174Z,24.93
2018-07-15T05:33:33.745Z,20.80
2018-07-15T05:36:04.387Z,20.73
2018-07-15T05:38:35.315Z,19.77
2018-07-15T05:41:06.244Z,18.53
2018-07-15T05:43:37.181Z,17.33
2018-07-15T05:46:08.156Z,16.10
2018-07-15T05:48:39.027Z,16.10
2018-07-15T05:51:10.302Z,15.77
2018-07-15T05:53:41.359Z,15.87
2018-07-15T05:56:12.179Z,15.77
2018-07-15T05:58:42.928Z,15.13
2018-07-15T06:01:13.780Z,14.27
2018-07-15T06:03:44.272Z,14.27
2018-07-15T06:06:15.480Z,12.83
2018-07-15T06:08:46.262Z,12.60
2018-07-15T06:11:16.861Z,12.93
2018-07-15T06:13:47.698Z,12.87
2018-07-15T06:16:18.303Z,12.23
2018-07-15T06:18:48.977Z,13.83
2018-07-15T06:21:19.456Z,13.70
2018-07-15T06:23:50.062Z,11.50
2018-07-15T06:26:20.656Z,10.77
2018-07-15T06:28:51.372Z,10.90
2018-07-15T06:31:21.940Z,10.40
2018-07-15T06:33:52.654Z,10.60
2018-07-15T06:36:23.415Z,10.43
2018-07-15T06:38:54.023Z,12.27
2018-07-15T06:41:24.714Z,11.10
2018-07-15T06:43:55.299Z,10.93
2018-07-15T06:46:25.309Z,14.23
2018-07-15T06:48:55.693Z,14.13
2018-07-15T06:51:26.259Z,14.23
2018-07-15T06:53:56.546Z,12.73
2018-07-15T06:56:27.464Z,12.20
2018-07-15T06:58:58.368Z,11.20
2018-07-15T07:01:29.187Z,9.20
2018-07-15T07:03:59.944Z,9.20
2018-07-15T07:06:30.587Z,9.50
2018-07-15T07:09:01.367Z,8.10
2018-07-15T07:11:31.457Z,9.73
2018-07-15T07:14:02.386Z,8.30
2018-07-15T07:16:33.435Z,9.20
2018-07-15T07:19:04.212Z,8.37
2018-07-15T07:21:34.275Z,8.53
2018-07-15T07:24:04.868Z,7.90
2018-07-15T07:26:35.290Z,8.33
2018-07-15T07:29:07.143Z,8.10
2018-07-15T07:31:39.320Z,7.17
2018-07-15T07:34:11.396Z,7.40
2018-07-15T07:36:43.422Z,8.00
2018-07-15T07:39:15.557Z,8.00
2018-07-15T07:41:53.668Z,8.00
2018-07-15T07:44:25.944Z,7.53
2018-07-15T07:46:58.149Z,7.37
2018-07-15T07:49:30.524Z,7.20
2018-07-15T07:52:02.685Z,8.40
2018-07-15T07:54:34.547Z,7.10
2018-07-15T07:57:07.221Z,6.87
2018-07-15T07:59:39.372Z,8.80
2018-07-15T08:02:11.572Z,9.17
2018-07-15T08:04:43.554Z,8.50
2018-07-15T08:07:15.709Z,8.67
2018-07-15T08:09:47.728Z,9.03
2018-07-15T08:12:20.567Z,8.50
2018-07-15T08:14:52.772Z,8.93
2018-07-15T08:17:25.739Z,7.93
2018-07-15T08:19:58.087Z,7.73
2018-07-15T08:22:30.826Z,8.00
2018-07-15T08:25:03.993Z,8.00
2018-07-15T08:27:36.054Z,5.80
2018-07-15T08:30:17.811Z,5.90
2018-07-15T08:32:49.808Z,6.23
2018-07-15T08:35:21.895Z,5.93
2018-07-15T08:37:54.201Z,5.30
2018-07-15T08:40:26.352Z,5.33
2018-07-15T08:42:59.434Z,4.80
2018-07-15T08:45:32.274Z,5.03
2018-07-15T08:48:04.692Z,5.00
2018-07-15T08:50:37.091Z,5.43
2018-07-15T08:53:08.139Z,6.73
2018-07-15T08:55:41.282Z,5.00
2018-07-15T08:58:13.505Z,4.70
2018-07-15T09:00:45.656Z,4.37
2018-07-15T09:03:18.964Z,4.30
2018-07-15T09:05:51.336Z,3.80
2018-07-15T09:08:23.661Z,4.33
2018-07-15T09:10:55.506Z,4.70
2018-07-15T09:13:27.868Z,4.40
2018-07-15T09:16:00.147Z,4.30
2018-07-15T09:18:32.189Z,4.07
2018-07-15T09:21:04.013Z,4.27
2018-07-15T09:23:35.426Z,4.67
2018-07-15T09:26:07.285Z,4.77
2018-07-15T09:28:39.467Z,4.80
2018-07-15T09:31:11.681Z,4.83
2018-07-15T09:33:43.936Z,4.87
2018-07-15T09:36:15.365Z,4.67
2018-07-15T09:38:47.719Z,4.27
2018-07-15T09:41:19.808Z,4.50
2018-07-15T09:43:51.126Z,4.90
2018-07-15T09:46:22.986Z,4.67
2018-07-15T09:48:56.017Z,4.30
2018-07-15T09:51:28.197Z,4.50
2018-07-15T09:54:00.336Z,4.00
2018-07-15T09:56:32.365Z,4.20
2018-07-15T09:59:05.165Z,4.00
2018-07-15T10:01:37.572Z,3.63
2018-07-15T10:04:10.160Z,4.07
2018-07-15T10:06:42.896Z,3.73
2018-07-15T10:09:15.960Z,4.10
2018-07-15T10:11:48.164Z,4.60
2018-07-15T10:14:20.529Z,4.43
2018-07-15T10:16:52.888Z,4.10
2018-07-15T10:19:24.975Z,4.10
2018-07-15T10:22:03.718Z,4.50
2018-07-15T10:24:35.590Z,3.73
2018-07-15T10:27:09.952Z,4.10
2018-07-15T10:29:42.139Z,4.80
2018-07-15T10:32:14.633Z,4.70
2018-07-15T10:34:46.708Z,4.00
2018-07-15T10:37:19.989Z,4.27
2018-07-15T10:39:51.378Z,3.93
2018-07-15T10:42:23.496Z,3.50
2018-07-15T10:44:56.679Z,4.17
2018-07-15T10:47:30.020Z,4.30
2018-07-15T10:50:02.891Z,3.77
2018-07-15T10:52:35.434Z,3.30
2018-07-15T10:55:08.204Z,3.90
2018-07-15T10:57:40.219Z,5.07
2018-07-15T11:00:12.456Z,4.23
2018-07-15T11:02:45.353Z,3.87
2018-07-15T11:05:18.571Z,4.30
2018-07-15T11:07:50.979Z,3.70
2018-07-15T11:10:23.556Z,2.93
2018-07-15T11:12:56.189Z,3.60
2018-07-15T11:15:28.226Z,4.67
2018-07-15T11:18:00.977Z,3.40
2018-07-15T11:20:33.401Z,3.73
2018-07-15T11:23:05.968Z,3.27
2018-07-15T11:25:38.100Z,3.63
2018-07-15T11:28:10.856Z,3.40
2018-07-15T11:30:43.366Z,3.70
2018-07-15T11:33:20.698Z,3.77
2018-07-15T11:35:52.719Z,3.50
2018-07-15T11:38:25.095Z,3.40
2018-07-15T11:40:58.116Z,3.60
2018-07-15T11:43:30.713Z,3.63
2018-07-15T11:46:02.560Z,3.53
2018-07-15T11:48:34.984Z,3.33
2018-07-15T11:51:06.963Z,3.20
2018-07-15T11:53:39.056Z,3.70
2018-07-15T11:56:11.082Z,3.00
2018-07-15T11:58:44.117Z,3.17
2018-07-15T12:01:15.891Z,3.83
2018-07-15T12:03:47.706Z,3.70
2018-07-15T12:06:20.245Z,3.47
2018-07-15T12:08:52.324Z,3.43
2018-07-15T12:11:25.413Z,3.90
2018-07-15T12:13:58.528Z,4.00
2018-07-15T12:16:36.151Z,3.83
2018-07-15T12:19:08.497Z,4.20
2018-07-15T12:21:40.567Z,3.53
2018-07-15T12:24:13.111Z,4.13
2018-07-15T12:26:45.134Z,4.13
2018-07-15T12:29:18.055Z,4.20
2018-07-15T12:31:50.624Z,4.17
2018-07-15T12:34:23.782Z,4.07
2018-07-15T12:36:54.764Z,4.07
2018-07-15T12:39:27.199Z,4.07
2018-07-15T12:41:59.035Z,3.60
2018-07-15T12:44:31.624Z,4.30
2018-07-15T12:47:09.596Z,3.97
2018-07-15T12:49:41.787Z,4.23
2018-07-15T12:52:14.021Z,4.37
2018-07-15T12:54:45.829Z,4.07
2018-07-15T12:57:16.487Z,4.10
2018-07-15T12:59:48.652Z,3.87
2018-07-15T13:02:20.506Z,4.00
2018-07-15T13:04:52.467Z,7.33
2018-07-15T13:07:24.432Z,4.00
2018-07-15T13:09:56.339Z,4.03
2018-07-15T13:12:28.992Z,4.00
2018-07-15T13:15:01.102Z,3.90
2018-07-15T13:17:33.436Z,4.13
2018-07-15T13:20:05.564Z,4.13
2018-07-15T13:22:37.833Z,4.20
2018-07-15T13:25:08.879Z,4.10
2018-07-15T13:27:41.630Z,4.60
2018-07-15T13:30:12.727Z,4.80
2018-07-15T13:32:45.416Z,4.50
2018-07-15T13:35:18.272Z,4.63
2018-07-15T13:37:50.652Z,4.17
2018-07-15T13:40:28.649Z,4.70
2018-07-15T13:43:00.491Z,4.60
2018-07-15T13:45:31.339Z,4.47
2018-07-15T13:48:03.344Z,3.87
2018-07-15T13:50:35.455Z,3.50
2018-07-15T13:53:07.307Z,4.23
2018-07-15T13:55:39.429Z,3.47
2018-07-15T13:58:11.551Z,4.50
2018-07-15T14:00:43.678Z,3.87
2018-07-15T14:03:16.148Z,3.73
2018-07-15T14:05:48.317Z,4.13
2018-07-15T14:08:20.579Z,3.37
2018-07-15T14:10:53.272Z,3.03
2018-07-15T14:13:25.414Z,3.43
2018-07-15T14:15:58.477Z,3.47
2018-07-15T14:18:30.193Z,3.83
2018-07-15T14:21:02.868Z,3.60
2018-07-15T14:23:34.956Z,3.57
2018-07-15T14:26:07.226Z,4.40
2018-07-15T14:28:39.479Z,3.43
2018-07-15T14:31:11.644Z,3.80
2018-07-15T14:33:43.536Z,2.97
2018-07-15T14:36:15.931Z,3.33
2018-07-15T14:38:47.924Z,2.87
2018-07-15T14:41:20.759Z,2.80
2018-07-15T14:43:53.101Z,3.60
2018-07-15T14:46:25.150Z,3.10
2018-07-15T14:48:58.044Z,3.20
2018-07-15T14:51:30.655Z,2.60
2018-07-15T14:54:03.168Z,3.03
2018-07-15T14:56:35.092Z,3.10
2018-07-15T14:59:06.077Z,6.17
2018-07-15T15:01:38.053Z,3.50
2018-07-15T15:04:10.130Z,3.13
2018-07-15T15:06:42.136Z,3.60
2018-07-15T15:09:14.858Z,3.40
2018-07-15T15:11:48.310Z,3.30
2018-07-15T15:14:20.494Z,3.30
2018-07-15T15:16:52.371Z,3.20
2018-07-15T15:19:24.480Z,3.20
2018-07-15T15:21:56.162Z,3.00
2018-07-15T15:24:26.896Z,2.90
2018-07-15T15:26:57.638Z,3.13
2018-07-15T15:29:29.486Z,3.83
2018-07-15T15:32:00.760Z,4.77
2018-07-15T15:34:32.671Z,3.70
2018-07-15T15:37:04.795Z,4.27
2018-07-15T15:39:37.446Z,3.60
2018-07-15T15:42:10.359Z,3.50
2018-07-15T15:44:41.123Z,3.60
2018-07-15T15:47:13.150Z,4.70
2018-07-15T15:49:45.330Z,3.67
2018-07-15T15:52:17.127Z,3.70
2018-07-15T15:54:49.417Z,4.23
2018-07-15T15:57:20.475Z,3.57
2018-07-15T15:59:52.325Z,3.97
2018-07-15T16:02:24.658Z,3.90
2018-07-15T16:04:56.799Z,3.93
2018-07-15T16:07:28.824Z,4.33
2018-07-15T16:10:00.668Z,4.67
2018-07-15T16:12:31.574Z,4.50
2018-07-15T16:15:03.832Z,4.63
2018-07-15T16:17:36.721Z,4.47
2018-07-15T16:20:09.412Z,4.97
2018-07-15T16:22:41.253Z,6.80
2018-07-15T16:25:13.246Z,5.73
2018-07-15T16:27:45.309Z,5.07
2018-07-15T16:30:17.209Z,6.37
2018-07-15T16:32:49.124Z,7.10
2018-07-15T16:35:21.396Z,4.70
2018-07-15T16:37:54.806Z,5.37
2018-07-15T16:40:27.121Z,4.27
2018-07-15T16:42:59.375Z,4.60
2018-07-15T16:45:31.207Z,3.90
2018-07-15T16:48:03.313Z,3.70
2018-07-15T16:50:36.359Z,3.80
2018-07-15T16:53:08.731Z,3.93
2018-07-15T16:55:40.599Z,3.80
2018-07-15T16:58:12.538Z,3.67
2018-07-15T17:00:44.484Z,3.60
2018-07-15T17:03:16.874Z,4.10
2018-07-15T17:05:49.512Z,4.60
2018-07-15T17:08:22.304Z,4.63
2018-07-15T17:10:54.290Z,5.00
2018-07-15T17:13:26.517Z,5.10
2018-07-15T17:15:58.433Z,5.10
2018-07-15T17:18:30.336Z,29.83
2018-07-15T17:21:02.529Z,7.87
2018-07-15T17:23:35.206Z,26.73
2018-07-15T17:26:07.353Z,10.67
2018-07-15T17:28:39.850Z,14.23
2018-07-15T17:31:12.624Z,14.10
2018-07-15T17:33:45.558Z,9.43
2018-07-15T17:36:18.394Z,6.80
2018-07-15T17:38:50.971Z,5.83
2018-07-15T17:41:23.345Z,29.60
2018-07-15T17:43:56.244Z,11.00
2018-07-15T17:46:28.184Z,78.13
2018-07-15T17:49:00.749Z,8.20
2018-07-15T17:51:32.655Z,10.47
2018-07-15T17:54:05.187Z,12.00
2018-07-15T17:56:37.476Z,12.13
2018-07-15T17:59:09.561Z,13.23
2018-07-15T18:01:42.477Z,11.10
2018-07-15T18:04:14.739Z,15.07
2018-07-15T18:06:46.842Z,13.63
2018-07-15T18:09:27.049Z,11.67
2018-07-15T18:12:00.655Z,9.10
2018-07-15T18:14:33.054Z,8.87
2018-07-15T18:17:14.059Z,10.33
2018-07-15T18:19:46.740Z,11.30
2018-07-15T18:22:19.988Z,10.20
2018-07-15T18:24:52.755Z,9.37
2018-07-15T18:27:29.447Z,10.23
2018-07-15T18:30:02.466Z,11.73
2018-07-15T18:32:35.933Z,11.80
2018-07-15T18:35:08.055Z,11.30
2018-07-15T18:37:40.514Z,10.73
2018-07-15T18:40:12.777Z,10.77
2018-07-15T18:42:45.179Z,10.53
2018-07-15T18:45:17.064Z,10.03
2018-07-15T18:47:49.263Z,10.77
2018-07-15T18:50:20.802Z,9.23
2018-07-15T18:52:53.780Z,8.37
2018-07-15T18:55:25.864Z,9.00
2018-07-15T18:57:57.976Z,9.27
2018-07-15T19:00:31.302Z,9.60
2018-07-15T19:03:03.759Z,9.03
2018-07-15T19:05:36.531Z,9.77
2018-07-15T19:08:08.524Z,10.37
2018-07-15T19:10:42.262Z,9.10
2018-07-15T19:13:13.187Z,8.80
2018-07-15T19:15:44.415Z,7.97
2018-07-15T19:18:16.810Z,7.93
2018-07-15T19:20:48.990Z,7.70
2018-07-15T19:23:23.181Z,7.47
2018-07-15T19:25:56.345Z,7.90
2018-07-15T19:28:29.825Z,7.93
2018-07-15T19:31:07.722Z,7.47
2018-07-15T19:33:41.772Z,7.37
2018-07-15T19:36:13.848Z,8.20
2018-07-15T19:38:47.201Z,8.57
2018-07-15T19:41:20.261Z,7.83
2018-07-15T19:43:52.191Z,8.80
2018-07-15T19:46:24.209Z,9.17
2018-07-15T19:48:56.742Z,9.50
2018-07-15T19:51:30.262Z,9.17
2018-07-15T19:54:01.948Z,8.83
2018-07-15T19:56:33.828Z,10.13
2018-07-15T19:59:08.259Z,8.37
2018-07-15T20:01:41.181Z,8.90
2018-07-15T20:04:15.048Z,10.40
2018-07-15T20:06:48.445Z,10.07
2018-07-15T20:09:21.610Z,9.20
2018-07-15T20:11:55.727Z,9.70
2018-07-15T20:14:27.922Z,9.20
2018-07-15T20:17:00.133Z,9.73
2018-07-15T20:19:33.648Z,9.83
2018-07-15T20:22:07.849Z,9.80
2018-07-15T20:24:39.875Z,9.37
2018-07-15T20:27:12.317Z,10.63
2018-07-15T20:29:44.328Z,9.97
2018-07-15T20:32:16.926Z,10.30
2018-07-15T20:34:49.552Z,9.10
2018-07-15T20:37:23.040Z,9.17
2018-07-15T20:39:55.334Z,8.53
2018-07-15T20:42:28.393Z,9.40
2018-07-15T20:45:01.051Z,8.97
2018-07-15T20:47:32.920Z,9.40
2018-07-15T20:50:06.231Z,9.60
2018-07-15T20:52:38.731Z,11.33
2018-07-15T20:55:11.002Z,10.83
2018-07-15T20:57:43.505Z,9.40
2018-07-15T21:00:16.146Z,10.33
2018-07-15T21:02:48.748Z,9.93
2018-07-15T21:05:21.598Z,9.00
2018-07-15T21:07:54.912Z,9.20
2018-07-15T21:10:28.302Z,9.17
